Latest Weather Observations for Central Arnhem Plateau

IDD60801

Issued at 8:01 pm CST Sunday 3 May 2015 (issued every 30 minutes, with the page automatically refreshed every 10 minutes)

About weather observations | Map of weather stations | Latest weather observations for NT | Other Formats
Station Details ID: 014909 Name: CENTRAL ARNHEM PLATEAU Lat: -13.33 Lon: 133.09 Height: 416.0 m
Data from the previous 72 hours. | See also: Recent months for locations in Northern Territory
Date/Time
CST
Temp
°C
App
Temp
°C
Dew
Point
Rel
Hum
%
Delta-T
°C
Wind Press
QNH
hPa
Press
MSL
hPa
Rain
since 9 am
mm
Dir
 
Spd
km/h
Gust
km/h
Spd
kts
Gust
kts
03/08:00pm 24.3 22.3 7.0 33 9.2 ESE 7 9 4 5 1014.5 1012.0 0.0
03/07:30pm 25.6 23.4 6.3 29 10.2 ESE 7 11 4 6 1014.2 1011.7 0.0
03/07:00pm 26.6 23.6 6.1 27 10.9 SE 11 15 6 8 1013.9 1011.4 0.0
03/06:30pm 27.6 24.9 5.8 25 11.6 SE 9 15 5 8 1013.6 1011.2 0.0
03/06:00pm 28.4 25.2 5.3 23 12.2 SE 11 15 6 8 1013.3 1010.9 0.0
03/05:30pm 29.3 25.5 4.0 20 13.1 SSE 13 17 7 9 1013.0 1010.6 0.0
03/05:00pm 29.7 26.0 4.4 20 13.3 SE 13 20 7 11 1012.8 1010.3 0.0
03/04:30pm 29.9 26.1 3.8 19 13.6 SSE 13 20 7 11 1012.8 1010.3 0.0
03/04:00pm 30.4 26.7 4.2 19 13.7 SE 13 19 7 10 1012.7 1010.2 0.0
03/03:30pm 30.2 26.3 3.3 18 13.9 SE 13 17 7 9 1012.9 1010.5 0.0
03/03:00pm 30.0 26.0 3.1 18 13.8 SE 13 22 7 12 1013.0 1010.6 0.0
03/02:30pm 29.9 25.9 3.0 18 13.8 ESE 13 24 7 13 1013.1 1010.7 0.0
03/02:00pm 30.1 26.4 2.4 17 14.1 ESE 11 24 6 13 1013.6 1011.2 0.0
03/01:30pm 30.0 25.1 2.3 17 14.0 ESE 17 26 9 14 1014.1 1011.6 0.0
03/01:00pm 30.0 26.4 3.1 18 13.8 ESE 11 17 6 9 1014.6 1012.1 0.0
03/12:30pm 29.4 24.3 1.0 16 14.0 SE 17 26 9 14 1015.0 1012.5 0.0
03/12:00pm 29.3 24.2 0.9 16 14.0 ESE 17 24 9 13 1015.4 1013.0 0.0
03/11:30am 29.3 24.6 3.3 19 13.3 SE 17 24 9 13 1015.9 1013.5 0.0
03/11:00am 28.0 24.4 5.0 23 12.1 ESE 13 20 7 11 1016.2 1013.8 0.0
03/10:30am 26.9 23.3 5.2 25 11.3 SE 13 20 7 11 1016.6 1014.1 0.0
03/10:00am 26.6 23.6 7.6 30 10.3 ESE 13 17 7 9 1016.8 1014.3 0.0
03/09:30am 25.0 22.5 8.1 34 9.2 E 11 15 6 8 1016.8 1014.3 0.0
03/09:00am 23.5 22.8 11.9 48 6.7 ENE 7 9 4 5 1016.7 1014.2 0.0
03/08:30am 21.9 22.4 11.6 52 5.9 CALM 0 0 0 0 1016.5 1014.0 0.0
03/08:00am 19.5 19.9 11.3 59 4.6 CALM 0 0 0 0 1016.1 1013.7 0.0
03/07:30am 16.6 16.8 10.5 67 3.3 CALM 0 0 0 0 1016.0 1013.6 0.0
03/07:00am 14.4 14.5 10.0 75 2.3 CALM 0 0 0 0 1015.7 1013.3 0.0
03/06:30am 14.2 14.1 9.4 73 2.5 CALM 0 0 0 0 1015.4 1013.0 0.0
03/06:00am 14.7 13.8 9.3 70 2.8 ESE 4 6 2 3 1015.2 1012.8 0.0
03/05:30am 16.0 16.1 10.1 68 3.2 CALM 0 0 0 0 1015.0 1012.5 0.0
03/05:00am 16.0 15.7 10.1 68 3.2 ESE 2 6 1 3 1015.0 1012.5 0.0
03/04:30am 16.8 15.8 10.4 66 3.5 ESE 6 6 3 3 1014.8 1012.3 0.0
03/04:00am 17.0 16.0 10.4 65 3.6 ESE 6 7 3 4 1014.7 1012.2 0.0
03/03:30am 17.3 16.1 10.4 64 3.7 ESE 7 7 4 4 1014.5 1012.0 0.0
03/03:00am 20.0 18.5 10.7 55 5.2 ESE 9 11 5 6 1014.6 1012.1 0.0
03/02:30am 20.3 18.8 10.7 54 5.3 ESE 9 11 5 6 1014.7 1012.2 0.0
03/02:00am 18.8 18.0 10.9 60 4.4 ESE 6 7 3 4 1014.8 1012.3 0.0
03/01:30am 19.3 18.6 11.3 60 4.5 E 6 6 3 3 1015.1 1012.7 0.0
03/01:00am 18.9 18.1 11.2 61 4.3 E 6 7 3 4 1015.2 1012.8 0.0
03/12:30am 19.2 18.1 9.9 55 5.1 ESE 6 7 3 4 1015.4 1013.0 0.0
03/12:00am 20.1 20.4 10.8 55 5.2 CALM 0 7 0 4 1015.3 1012.9 0.0
 
Date/Time
CST
Temp
°C
App
Temp
°C
Dew
Point
Rel
Hum
%
Delta-T
°C
Wind Press
QNH
hPa
Press
MSL
hPa
Rain
since 9 am
mm
Dir
 
Spd
km/h
Gust
km/h
Spd
kts
Gust
kts
02/11:30pm 20.3 20.5 10.4 53 5.5 CALM 0 0 0 0 1015.3 1012.9 0.0
02/11:00pm 20.7 19.5 9.6 49 6.1 ESE 6 9 3 5 1015.2 1012.8 0.0
02/10:30pm 23.1 22.2 10.5 45 7.1 SE 6 13 3 7 1015.1 1012.7 0.0
02/10:00pm 22.4 22.4 9.9 45 6.9 CALM 0 0 0 0 1014.9 1012.4 0.0
02/09:30pm 23.2 22.0 9.6 42 7.5 ESE 6 7 3 4 1014.8 1012.3 0.0
02/09:00pm 24.3 22.4 9.1 38 8.4 SE 9 11 5 6 1014.7 1012.2 0.0
02/08:30pm 24.4 22.5 9.2 38 8.4 SE 9 11 5 6 1014.5 1012.0 0.0
02/08:00pm 25.0 23.4 8.9 36 8.9 SE 7 11 4 6 1014.1 1011.6 0.0
02/07:30pm 25.9 23.9 8.8 34 9.5 SE 9 15 5 8 1013.7 1011.3 0.0
02/07:00pm 26.3 23.9 8.8 33 9.7 SE 11 13 6 7 1013.2 1010.8 0.0
02/06:30pm 27.5 25.2 8.9 31 10.4 SE 11 15 6 8 1012.9 1010.5 0.0
02/06:00pm 28.5 25.9 7.7 27 11.5 SE 11 15 6 8 1012.5 1010.0 0.0
02/05:30pm 29.3 26.1 6.7 24 12.3 ESE 13 19 7 10 1012.4 1009.9 0.0
02/05:00pm 29.7 26.4 6.4 23 12.6 SE 13 20 7 11 1012.3 1009.8 0.0
02/04:30pm 29.6 26.3 6.3 23 12.6 SE 13 17 7 9 1012.3 1009.8 0.0
02/04:00pm 30.1 26.7 6.1 22 13.0 ESE 13 20 7 11 1012.3 1009.8 0.0
02/03:30pm 30.2 26.8 6.1 22 13.0 SE 13 20 7 11 1012.4 1009.9 0.0
02/03:00pm 29.9 26.0 5.2 21 13.1 ESE 15 22 8 12 1012.7 1010.2 0.0
02/02:30pm 29.8 26.4 5.8 22 12.9 SSE 13 24 7 13 1013.1 1010.7 0.0
02/02:00pm 29.4 26.0 6.1 23 12.5 ESE 13 20 7 11 1013.5 1011.1 0.0
02/01:30pm 29.9 26.2 6.5 23 12.7 E 15 20 8 11 1013.7 1011.3 0.0
02/01:00pm 28.7 23.8 4.2 21 12.7 ESE 19 26 10 14 1014.2 1011.7 0.0
02/12:30pm 28.7 23.9 5.5 23 12.3 ESE 20 30 11 16 1014.6 1012.1 0.0
02/12:00pm 28.1 23.3 5.6 24 11.9 ESE 20 28 11 15 1015.1 1012.7 0.0
02/11:30am 27.4 22.7 5.1 24 11.7 ESE 19 26 10 14 1015.6 1013.2 0.0
02/11:00am 26.9 23.0 6.9 28 10.8 ESE 17 24 9 13 1016.0 1013.6 0.0
02/10:30am 26.1 22.4 8.1 32 9.8 ESE 17 24 9 13 1016.3 1013.9 0.0
02/10:00am 25.4 21.8 8.4 34 9.3 ESE 17 22 9 12 1016.5 1014.0 0.0
02/09:30am 23.9 21.6 10.6 43 7.5 ESE 13 17 7 9 1016.2 1013.8 0.0
02/09:00am 21.8 19.6 10.9 50 6.1 E 13 15 7 8 1016.2 1013.8 0.0
02/08:30am 20.2 18.5 10.0 52 5.6 E 9 13 5 7 1016.1 1013.7 0.0
02/08:00am 18.9 17.2 9.9 56 4.9 ESE 9 11 5 6 1016.0 1013.6 0.0
02/07:30am 15.7 14.8 9.4 66 3.3 E 4 7 2 4 1015.7 1013.3 0.0
02/07:00am 14.2 14.1 9.4 73 2.5 CALM 0 0 0 0 1015.3 1012.9 0.0
02/06:30am 14.2 14.1 9.4 73 2.5 CALM 0 0 0 0 1014.9 1012.4 0.0
02/06:00am 14.3 12.8 9.3 72 2.6 ESE 7 9 4 5 1014.8 1012.3 0.0
02/05:30am 14.9 13.5 9.7 71 2.7 ESE 7 11 4 6 1014.8 1012.3 0.0
02/05:00am 14.9 13.4 9.3 69 2.9 ESE 7 7 4 4 1014.8 1012.3 0.0
02/04:30am 17.7 15.1 9.3 58 4.5 SE 13 13 7 7 1014.7 1012.2 0.0
02/04:00am 15.5 14.3 9.4 67 3.2 ESE 6 7 3 4 1014.8 1012.3 0.0
02/03:30am 16.8 15.4 9.5 62 3.9 ESE 7 9 4 5 1014.6 1012.1 0.0
02/03:00am 18.0 16.8 9.6 58 4.5 ESE 6 7 3 4 1014.7 1012.2 0.0
02/02:30am 17.4 16.5 9.3 59 4.3 E 4 7 2 4 1014.6 1012.1 0.0
02/02:00am 18.0 17.8 9.1 56 4.7 CALM 0 0 0 0 1014.7 1012.2 0.0
02/01:30am 17.8 17.6 8.9 56 4.7 CALM 0 0 0 0 1014.9 1012.4 0.0
02/01:00am 18.5 17.1 8.7 53 5.2 E 6 7 3 4 1015.1 1012.7 0.0
02/12:30am 20.3 18.3 8.6 47 6.3 SE 9 13 5 7 1015.2 1012.8 0.0
02/12:00am 19.9 17.7 9.5 51 5.6 SE 11 13 6 7 1015.2 1012.8 0.0
 
Date/Time
CST
Temp
°C
App
Temp
°C
Dew
Point
Rel
Hum
%
Delta-T
°C
Wind Press
QNH
hPa
Press
MSL
hPa
Rain
since 9 am
mm
Dir
 
Spd
km/h
Gust
km/h
Spd
kts
Gust
kts
01/11:30pm 19.9 18.8 9.8 52 5.5 ESE 6 7 3 4 1015.1 1012.7 0.0
01/11:00pm 20.2 19.7 9.5 50 5.8 ENE 2 6 1 3 1015.1 1012.7 0.0
01/10:30pm 21.5 20.1 9.4 46 6.6 ESE 7 9 4 5 1015.0 1012.5 0.0
01/10:00pm 20.8 19.8 8.8 46 6.5 E 4 6 2 3 1015.1 1012.7 0.0
01/09:30pm 23.4 21.8 8.7 39 8.0 SE 7 9 4 5 1014.8 1012.3 0.0
01/09:00pm 23.9 21.9 8.7 38 8.3 SSE 9 11 5 6 1014.5 1012.0 0.0
01/08:30pm 23.3 22.4 9.3 41 7.7 ESE 4 11 2 6 1014.2 1011.7 0.0
01/08:00pm 24.7 23.1 8.6 36 8.8 ESE 7 9 4 5 1013.7 1011.3 0.0
01/07:30pm 25.3 22.9 8.7 35 9.1 SE 11 13 6 7 1013.4 1011.0 0.0
01/07:00pm 26.2 23.8 8.7 33 9.7 SE 11 13 6 7 1013.3 1010.9 0.0
01/06:30pm 27.2 24.4 8.6 31 10.3 SE 13 17 7 9 1013.1 1010.7 0.0
01/06:00pm 28.3 25.5 8.6 29 11.0 SE 13 19 7 10 1012.9 1010.5 0.0
01/05:30pm 29.1 25.5 8.2 27 11.6 SE 17 22 9 12 1012.7 1010.2 0.0
01/05:00pm 29.6 25.6 8.1 26 12.0 SE 19 26 10 14 1012.6 1010.1 0.0
01/04:30pm 29.8 26.5 8.2 26 12.1 ESE 15 24 8 13 1012.6 1010.1 0.0
01/04:00pm 30.1 26.8 7.9 25 12.4 E 15 24 8 13 1012.6 1010.1 0.0
01/03:30pm 30.1 26.2 7.3 24 12.6 E 17 22 9 12 1012.8 1010.3 0.0
01/03:00pm 29.9 26.1 7.7 25 12.3 E 17 24 9 13 1013.1 1010.7 0.0
01/02:30pm 29.4 25.4 6.7 24 12.3 SE 17 24 9 13 1013.3 1010.9 0.0
01/02:00pm 29.8 25.9 7.1 24 12.4 SE 17 30 9 16 1013.5 1011.1 0.0
01/01:30pm 29.4 24.9 6.1 23 12.5 E 19 28 10 15 1014.0 1011.5 0.0
01/01:00pm 29.1 24.7 6.5 24 12.2 ESE 19 28 10 15 1014.4 1011.9 0.0
01/12:30pm 28.4 24.0 7.6 27 11.4 ESE 20 28 11 15 1015.0 1012.5 0.0
01/12:00pm 27.9 24.1 7.7 28 11.1 ESE 17 24 9 13 1015.6 1013.2 0.0
01/11:30am 27.4 23.2 7.3 28 10.9 ESE 19 32 10 17 1016.1 1013.7 0.0
01/11:00am 26.3 22.4 8.8 33 9.7 ESE 19 26 10 14 1016.6 1014.1 0.0
01/10:30am 25.0 21.4 9.7 38 8.5 ESE 19 24 10 13 1016.9 1014.4 0.0
01/10:00am 24.1 20.5 10.7 43 7.6 SE 20 26 11 14 1017.0 1014.5 0.0
01/09:30am 23.0 20.2 11.4 48 6.6 SE 17 20 9 11 1017.1 1014.6 0.0
01/09:00am 21.8 18.8 11.8 53 5.7 ESE 19 26 10 14 1016.9 1014.1 0.0
01/08:30am 20.9 19.0 11.8 56 5.2 ESE 13 17 7 9 1016.8 1014.0 0.0
01/08:00am 18.8 17.8 10.9 60 4.4 ENE 7 9 4 5 1016.5 1013.6 0.0
01/07:30am 17.0 16.0 10.4 65 3.6 E 6 7 3 4 1016.1 1013.3 0.0
01/07:00am 15.9 14.6 10.0 68 3.2 ESE 7 9 4 5 1015.8 1013.0 0.0
01/06:30am 15.5 14.2 10.1 70 2.9 ESE 7 9 4 5 1015.6 1012.8 0.0
01/06:00am 15.2 14.0 9.6 69 3.0 ESE 6 7 3 4 1015.4 1012.6 0.0
01/05:30am 17.1 15.8 10.0 63 3.8 SE 7 9 4 5 1015.3 1012.5 0.0
01/05:00am 18.7 17.2 10.5 59 4.5 SE 9 9 5 5 1015.3 1012.5 0.0
01/04:30am 18.9 17.3 10.2 57 4.8 SE 9 11 5 6 1015.4 1012.6 0.0
01/04:00am 19.0 17.3 9.8 55 5.0 SE 9 13 5 7 1015.3 1012.5 0.0
01/03:30am 18.0 16.4 8.8 55 4.9 ESE 7 7 4 4 1015.4 1012.6 0.0
01/03:00am 19.1 17.0 8.4 50 5.7 SE 9 11 5 6 1015.7 1012.9 0.0
01/02:30am 19.4 17.8 8.1 48 5.9 ESE 6 7 3 4 1016.0 1013.2 0.0
01/02:00am 19.0 17.6 8.9 52 5.4 E 6 7 3 4 1016.2 1013.4 0.0
01/01:30am 19.0 17.5 8.6 51 5.5 E 6 7 3 4 1016.6 1013.7 0.0
01/01:00am 19.0 17.5 8.4 50 5.6 E 6 7 3 4 1017.0 1014.2 0.0
01/12:30am 19.6 18.1 8.6 49 5.8 E 6 7 3 4 1017.1 1014.3 0.0
01/12:00am 19.5 17.9 8.2 48 6.0 ENE 6 6 3 3 1017.2 1014.4 0.0
 
Date/Time
CST
Temp
°C
App
Temp
°C
Dew
Point
Rel
Hum
%
Delta-T
°C
Wind Press
QNH
hPa
Press
MSL
hPa
Rain
since 9 am
mm
Dir
 
Spd
km/h
Gust
km/h
Spd
kts
Gust
kts
30/11:30pm 19.8 18.2 8.8 49 5.9 ESE 7 9 4 5 1017.3 1014.5 0.0
30/11:00pm 20.2 19.9 8.5 47 6.2 CALM 0 0 0 0 1017.5 1014.7 0.0
30/10:30pm 22.9 20.3 6.2 34 8.7 SSE 9 13 5 7 1017.3 1014.5 0.0
30/10:00pm 23.1 21.1 6.4 34 8.7 SSE 6 11 3 6 1017.3 1014.5 0.0
30/09:30pm 23.4 21.2 6.2 33 8.9 ESE 7 9 4 5 1017.2 1014.4 0.0
30/09:00pm 24.1 21.7 6.8 33 9.1 SSE 9 13 5 7 1016.9 1014.1 0.0
30/08:30pm 24.7 22.3 6.9 32 9.5 SSE 9 13 5 7 1016.6 1013.7 0.0

Other Formats:

Comma delimited format used in spreadsheet applications
http://www.bom.gov.au/fwo/IDD60801/IDD60801.94141.axf

JavaScript Object Notation format (JSON) in row-major order
http://www.bom.gov.au/fwo/IDD60801/IDD60801.94141.json